createdAt,value
2022-12-29T00:02:23.748Z,9.90
2022-12-29T00:04:51.585Z,9.90
2022-12-29T00:07:18.985Z,9.90
2022-12-29T00:09:45.765Z,9.90
2022-12-29T00:12:12.435Z,9.80
2022-12-29T00:14:57.717Z,9.80
2022-12-29T00:17:24.467Z,9.90
2022-12-29T00:20:09.695Z,9.90
2022-12-29T00:22:55.310Z,9.80
2022-12-29T00:25:40.883Z,9.80
2022-12-29T00:28:28.820Z,9.90
2022-12-29T00:31:19.119Z,11.50
2022-12-29T00:34:04.497Z,10.80
2022-12-29T00:36:39.451Z,9.90
2022-12-29T00:39:38.060Z,9.90
2022-12-29T00:42:28.214Z,9.80
2022-12-29T00:44:55.064Z,9.90
2022-12-29T00:47:21.798Z,9.90
2022-12-29T00:49:48.509Z,9.90
2022-12-29T00:52:15.269Z,9.90
2022-12-29T00:54:42.743Z,9.80
2022-12-29T00:57:10.669Z,9.90
2022-12-29T00:59:38.362Z,9.90
2022-12-29T01:02:06.031Z,9.90
2022-12-29T01:04:33.595Z,9.70
2022-12-29T01:07:00.811Z,9.90
2022-12-29T01:09:46.457Z,9.90
2022-12-29T01:12:13.417Z,9.90
2022-12-29T01:14:41.210Z,10.00
2022-12-29T01:17:08.612Z,9.90
2022-12-29T01:19:35.325Z,10.10
2022-12-29T01:22:02.155Z,9.80
2022-12-29T01:24:29.074Z,9.90
2022-12-29T01:26:55.942Z,9.90
2022-12-29T01:29:23.297Z,9.90
2022-12-29T01:31:51.029Z,10.00
2022-12-29T01:34:18.833Z,10.00
2022-12-29T01:36:45.983Z,10.00
2022-12-29T01:39:13.035Z,10.10
2022-12-29T01:41:41.277Z,10.40
2022-12-29T01:44:45.698Z,10.20
2022-12-29T01:47:12.496Z,10.30
2022-12-29T01:49:39.562Z,10.30
2022-12-29T01:52:08.976Z,10.30
2022-12-29T01:54:41.903Z,10.30
2022-12-29T01:57:15.970Z,10.30
2022-12-29T02:00:01.349Z,10.30
2022-12-29T02:02:33.046Z,10.30
2022-12-29T02:05:04.878Z,10.30
2022-12-29T02:07:32.639Z,10.40
2022-12-29T02:10:01.457Z,10.40
2022-12-29T02:12:28.224Z,10.40
2022-12-29T02:14:59.525Z,10.30
2022-12-29T02:17:32.347Z,10.40
2022-12-29T02:20:20.406Z,10.40
2022-12-29T02:23:14.704Z,10.40
2022-12-29T02:26:19.086Z,10.50
2022-12-29T02:29:01.880Z,10.40
2022-12-29T02:31:42.610Z,10.30
2022-12-29T02:34:40.994Z,10.40
2022-12-29T02:37:34.606Z,10.30
2022-12-29T02:40:21.016Z,10.20
2022-12-29T02:43:29.813Z,10.20
2022-12-29T02:46:10.978Z,10.20
2022-12-29T02:49:01.711Z,10.20
2022-12-29T02:51:40.153Z,10.30
2022-12-29T02:54:25.849Z,10.20
2022-12-29T02:56:52.525Z,10.20
2022-12-29T02:59:19.439Z,10.30
2022-12-29T03:02:23.168Z,10.30
2022-12-29T03:05:11.409Z,10.20
2022-12-29T03:08:05.412Z,10.10
2022-12-29T03:10:38.859Z,10.20
2022-12-29T03:13:44.828Z,10.20
2022-12-29T03:16:35.936Z,10.10
2022-12-29T03:19:24.810Z,10.00
2022-12-29T03:22:16.453Z,8.70
2022-12-29T03:24:49.222Z,10.10
2022-12-29T03:27:20.256Z,10.30
2022-12-29T03:29:54.970Z,10.10
2022-12-29T03:32:24.807Z,10.20
2022-12-29T03:34:51.996Z,10.20
2022-12-29T03:37:24.790Z,10.20
2022-12-29T03:39:51.633Z,10.20
2022-12-29T03:42:22.548Z,10.20
2022-12-29T03:44:49.297Z,10.90
2022-12-29T03:47:16.314Z,10.20
2022-12-29T03:49:43.944Z,10.30
2022-12-29T03:52:10.680Z,11.40
2022-12-29T03:54:37.513Z,10.30
2022-12-29T03:57:04.379Z,10.10
2022-12-29T03:59:31.054Z,10.20
2022-12-29T04:01:58.919Z,10.20
2022-12-29T04:04:26.978Z,10.20
2022-12-29T04:06:53.875Z,10.20
2022-12-29T04:09:20.652Z,10.30
2022-12-29T04:11:47.433Z,10.30
2022-12-29T04:14:14.147Z,10.40
2022-12-29T04:16:41.174Z,10.30
2022-12-29T04:19:08.419Z,10.30
2022-12-29T04:21:35.275Z,10.30
2022-12-29T04:24:02.401Z,11.70
2022-12-29T04:26:29.257Z,10.30
2022-12-29T04:28:55.974Z,10.30
2022-12-29T04:31:22.761Z,10.30
2022-12-29T04:33:49.733Z,10.40
2022-12-29T04:36:16.638Z,10.30
2022-12-29T04:38:45.500Z,10.30
2022-12-29T04:41:12.232Z,10.30
2022-12-29T04:43:38.959Z,10.30
2022-12-29T04:46:05.932Z,10.30
2022-12-29T04:48:32.776Z,10.20
2022-12-29T04:50:59.445Z,10.30
2022-12-29T04:53:26.198Z,10.20
2022-12-29T04:55:53.829Z,10.30
2022-12-29T04:58:23.039Z,10.30
2022-12-29T05:00:50.970Z,10.30
2022-12-29T05:03:17.809Z,10.30
2022-12-29T05:05:45.168Z,10.40
2022-12-29T05:08:12.029Z,10.30
2022-12-29T05:10:39.006Z,10.30
2022-12-29T05:13:05.763Z,10.30
2022-12-29T05:15:32.448Z,10.30
2022-12-29T05:17:59.290Z,10.30
2022-12-29T05:20:26.008Z,10.30
2022-12-29T05:22:52.670Z,11.30
2022-12-29T05:25:19.370Z,10.30
2022-12-29T05:27:46.740Z,10.40
2022-12-29T05:30:14.990Z,10.30
2022-12-29T05:32:42.028Z,10.30
2022-12-29T05:35:09.406Z,10.20
2022-12-29T05:37:36.169Z,10.20
2022-12-29T05:40:02.985Z,10.10
2022-12-29T05:42:29.728Z,10.10
2022-12-29T05:44:56.511Z,10.10
2022-12-29T05:47:23.319Z,10.10
2022-12-29T05:49:50.230Z,10.10
2022-12-29T05:52:16.948Z,10.20
2022-12-29T05:54:44.550Z,10.10
2022-12-29T05:57:11.292Z,10.00
2022-12-29T05:59:38.014Z,10.00
2022-12-29T06:02:04.917Z,10.00
2022-12-29T06:04:31.844Z,9.90
2022-12-29T06:06:58.602Z,10.10
2022-12-29T06:09:25.335Z,10.10
2022-12-29T06:11:52.215Z,10.10
2022-12-29T06:14:19.093Z,9.90
2022-12-29T06:16:45.842Z,9.90
2022-12-29T06:19:12.640Z,9.90
2022-12-29T06:21:39.345Z,9.80
2022-12-29T06:24:06.582Z,9.90
2022-12-29T06:26:33.250Z,10.00
2022-12-29T06:29:00.135Z,9.90
2022-12-29T06:31:26.973Z,9.90
2022-12-29T06:33:53.810Z,9.80
2022-12-29T06:36:20.518Z,9.70
2022-12-29T06:38:47.483Z,9.80
2022-12-29T06:41:14.197Z,9.70
2022-12-29T06:43:40.866Z,9.70
2022-12-29T06:46:07.687Z,9.70
2022-12-29T06:48:34.495Z,9.80
2022-12-29T06:51:01.173Z,9.70
2022-12-29T06:53:27.989Z,9.70
2022-12-29T06:55:54.893Z,9.80
2022-12-29T06:58:21.730Z,9.90
2022-12-29T07:00:49.317Z,9.80
2022-12-29T07:03:16.159Z,9.80
2022-12-29T07:05:43.861Z,9.80
2022-12-29T07:08:10.612Z,9.70
2022-12-29T07:10:37.377Z,9.70
2022-12-29T07:13:04.251Z,9.70
2022-12-29T07:15:30.993Z,9.70
2022-12-29T07:17:57.714Z,9.70
2022-12-29T07:20:26.995Z,9.70
2022-12-29T07:22:54.437Z,9.60
2022-12-29T07:25:21.128Z,9.70
2022-12-29T07:27:47.904Z,9.70
2022-12-29T07:30:14.677Z,9.70
2022-12-29T07:32:42.003Z,9.70
2022-12-29T07:35:09.363Z,9.70
2022-12-29T07:37:36.138Z,9.70
2022-12-29T07:40:04.414Z,10.80
2022-12-29T07:42:32.663Z,9.80
2022-12-29T07:44:59.392Z,9.70
2022-12-29T07:47:27.234Z,9.80
2022-12-29T07:49:53.977Z,9.80
2022-12-29T07:52:20.719Z,9.80
2022-12-29T07:54:47.458Z,9.70
2022-12-29T07:57:14.248Z,9.60
2022-12-29T07:59:41.110Z,9.60
2022-12-29T08:02:11.398Z,9.60
2022-12-29T08:04:38.396Z,9.60
2022-12-29T08:07:06.035Z,10.80
2022-12-29T08:09:32.809Z,9.60
2022-12-29T08:11:59.888Z,9.70
2022-12-29T08:14:26.740Z,9.70
2022-12-29T08:16:53.490Z,9.70
2022-12-29T08:19:20.275Z,11.20
2022-12-29T08:21:47.124Z,9.80
2022-12-29T08:24:13.804Z,9.80
2022-12-29T08:26:40.619Z,9.90
2022-12-29T08:29:07.745Z,9.90
2022-12-29T08:31:34.519Z,10.50
2022-12-29T08:34:02.569Z,9.90
2022-12-29T08:36:29.367Z,10.00
2022-12-29T08:38:56.094Z,10.00
2022-12-29T08:41:22.931Z,10.10
2022-12-29T08:43:50.738Z,10.10
2022-12-29T08:46:18.025Z,10.10
2022-12-29T08:48:45.118Z,10.20
2022-12-29T08:51:12.193Z,10.30
2022-12-29T08:53:39.101Z,10.30
2022-12-29T08:56:06.340Z,10.40
2022-12-29T08:58:33.460Z,10.50
2022-12-29T09:01:00.282Z,10.50
2022-12-29T09:03:55.153Z,10.60
2022-12-29T09:06:16.269Z,10.60
2022-12-29T09:08:43.726Z,10.70
2022-12-29T09:11:11.958Z,10.70
2022-12-29T09:13:39.598Z,10.90
2022-12-29T09:16:07.156Z,10.90
2022-12-29T09:18:34.515Z,11.10
2022-12-29T09:21:03.694Z,11.10
2022-12-29T09:23:31.193Z,11.20
2022-12-29T09:25:57.958Z,11.30
2022-12-29T09:28:25.097Z,11.50
2022-12-29T09:30:52.197Z,11.60
2022-12-29T09:33:19.169Z,11.90
2022-12-29T09:35:50.779Z,11.90
2022-12-29T09:38:18.143Z,12.20
2022-12-29T09:40:50.763Z,12.10
2022-12-29T09:43:39.429Z,12.50
2022-12-29T09:46:26.445Z,12.30
2022-12-29T09:49:24.407Z,12.50
2022-12-29T09:51:55.142Z,12.60
2022-12-29T09:54:40.042Z,12.50
2022-12-29T09:57:17.796Z,12.70
2022-12-29T09:59:47.449Z,12.80
2022-12-29T10:02:34.019Z,12.90
2022-12-29T10:05:01.240Z,12.90
2022-12-29T10:07:32.205Z,13.00
2022-12-29T10:10:24.699Z,13.10
2022-12-29T10:13:09.926Z,13.10
2022-12-29T10:15:57.755Z,13.10
2022-12-29T10:18:54.468Z,13.20
2022-12-29T10:21:39.752Z,13.20
2022-12-29T10:24:11.570Z,13.30
2022-12-29T10:26:44.088Z,13.30
2022-12-29T10:29:21.441Z,13.40
2022-12-29T10:32:17.461Z,13.40
2022-12-29T10:34:52.111Z,13.50
2022-12-29T10:37:18.936Z,13.70
2022-12-29T10:39:50.571Z,13.60
2022-12-29T10:42:28.550Z,13.60
2022-12-29T10:44:57.276Z,13.60
2022-12-29T10:47:35.979Z,13.70
2022-12-29T10:50:03.747Z,13.70
2022-12-29T10:52:33.820Z,13.70
2022-12-29T10:55:05.003Z,13.80
2022-12-29T10:57:40.826Z,13.80
2022-12-29T11:00:16.069Z,13.80
2022-12-29T11:03:01.503Z,13.80
2022-12-29T11:05:37.538Z,13.80
2022-12-29T11:08:12.156Z,13.80
2022-12-29T11:10:41.951Z,13.90
2022-12-29T11:13:15.866Z,13.90
2022-12-29T11:15:44.385Z,13.80
2022-12-29T11:18:24.837Z,13.90
2022-12-29T11:21:00.267Z,13.80
2022-12-29T11:23:41.571Z,13.80
2022-12-29T11:26:11.349Z,13.80
2022-12-29T11:28:39.254Z,13.80
2022-12-29T11:31:08.099Z,13.70
2022-12-29T11:33:40.389Z,13.80
2022-12-29T11:36:14.763Z,13.80
2022-12-29T11:39:02.834Z,14.50
2022-12-29T11:41:32.207Z,13.80
2022-12-29T11:44:03.568Z,13.90
2022-12-29T11:46:37.808Z,13.90
2022-12-29T11:49:05.501Z,13.90
2022-12-29T11:51:45.089Z,14.00
2022-12-29T11:54:23.206Z,14.00
2022-12-29T11:56:50.595Z,14.00
2022-12-29T11:59:35.259Z,14.00
2022-12-29T12:02:16.418Z,14.00
2022-12-29T12:04:43.541Z,14.70
2022-12-29T12:07:13.770Z,14.20
2022-12-29T12:10:07.370Z,14.20
2022-12-29T12:12:42.379Z,14.10
2022-12-29T12:15:18.836Z,14.10
2022-12-29T12:17:53.322Z,13.40
2022-12-29T12:20:49.165Z,14.20
2022-12-29T12:23:37.541Z,14.20
2022-12-29T12:26:15.856Z,14.20
2022-12-29T12:28:45.438Z,14.20
2022-12-29T12:31:20.484Z,14.10
2022-12-29T12:33:54.711Z,14.20
2022-12-29T12:36:39.473Z,14.10
2022-12-29T12:39:19.124Z,14.20
2022-12-29T12:42:04.496Z,14.20
2022-12-29T12:44:52.537Z,14.20
2022-12-29T12:47:44.619Z,14.20
2022-12-29T12:50:29.550Z,14.20
2022-12-29T12:53:35.670Z,14.20
2022-12-29T12:56:26.927Z,14.10
2022-12-29T12:59:09.195Z,14.10
2022-12-29T13:01:43.296Z,14.10
2022-12-29T13:04:10.062Z,14.10
2022-12-29T13:07:16.702Z,14.10
2022-12-29T13:10:20.941Z,14.10
2022-12-29T13:12:57.962Z,14.10
2022-12-29T13:16:29.640Z,14.90
2022-12-29T13:19:09.960Z,14.00
2022-12-29T13:22:16.322Z,14.00
2022-12-29T13:25:16.281Z,14.00
2022-12-29T13:27:50.623Z,14.00
2022-12-29T13:30:21.653Z,14.00
2022-12-29T13:33:16.350Z,14.00
2022-12-29T13:36:11.555Z,14.00
2022-12-29T13:38:46.277Z,13.90
2022-12-29T13:41:25.810Z,14.00
2022-12-29T13:43:53.820Z,14.00
2022-12-29T13:46:27.825Z,13.90
2022-12-29T13:49:00.612Z,14.00
2022-12-29T13:51:28.716Z,14.00
2022-12-29T13:54:33.539Z,13.90
2022-12-29T13:57:20.336Z,14.00
2022-12-29T14:00:12.097Z,14.00
2022-12-29T14:02:48.092Z,14.00
2022-12-29T14:05:21.279Z,14.00
2022-12-29T14:07:50.279Z,14.00
2022-12-29T14:10:36.391Z,14.00
2022-12-29T14:13:11.681Z,13.90
2022-12-29T14:15:44.079Z,14.00
2022-12-29T14:18:20.588Z,14.00
2022-12-29T14:20:57.992Z,14.00
2022-12-29T14:23:37.938Z,14.10
2022-12-29T14:26:07.665Z,14.00
2022-12-29T14:28:44.850Z,13.90
2022-12-29T14:31:20.644Z,15.10
2022-12-29T14:34:12.216Z,14.00
2022-12-29T14:36:41.415Z,14.00
2022-12-29T14:39:40.404Z,14.10
2022-12-29T14:42:14.631Z,14.10
2022-12-29T14:45:13.748Z,14.10
2022-12-29T14:47:46.457Z,14.10
2022-12-29T14:50:30.467Z,14.10
2022-12-29T14:53:03.576Z,14.10
2022-12-29T14:55:54.614Z,14.10
2022-12-29T14:58:29.240Z,14.10
2022-12-29T15:00:56.364Z,14.10
2022-12-29T15:03:32.987Z,14.10
2022-12-29T15:06:12.508Z,14.10
2022-12-29T15:09:23.746Z,14.10
2022-12-29T15:11:58.751Z,14.20
2022-12-29T15:14:37.986Z,14.20
2022-12-29T15:17:28.158Z,14.20
2022-12-29T15:19:56.824Z,14.20
2022-12-29T15:22:24.941Z,15.00
2022-12-29T15:24:53.655Z,14.10
2022-12-29T15:27:23.999Z,14.10
2022-12-29T15:30:02.899Z,14.10
2022-12-29T15:32:39.963Z,14.10
2022-12-29T15:35:28.889Z,14.00
2022-12-29T15:37:56.587Z,14.00
2022-12-29T15:40:34.421Z,14.00
2022-12-29T15:43:46.734Z,12.70
2022-12-29T15:46:14.795Z,14.00
2022-12-29T15:48:42.121Z,13.90
2022-12-29T15:51:35.793Z,13.90
2022-12-29T15:54:03.212Z,13.90
2022-12-29T15:56:31.033Z,13.90
2022-12-29T15:58:58.609Z,14.00
2022-12-29T16:01:31.929Z,13.90
2022-12-29T16:04:07.308Z,13.90
2022-12-29T16:06:39.670Z,13.80
2022-12-29T16:09:14.521Z,13.70
2022-12-29T16:11:45.452Z,14.00
2022-12-29T16:14:19.311Z,13.80
2022-12-29T16:16:50.186Z,13.90
2022-12-29T16:19:33.168Z,13.90
2022-12-29T16:22:01.721Z,13.80
2022-12-29T16:24:32.862Z,13.80
2022-12-29T16:27:07.665Z,13.80
2022-12-29T16:29:35.355Z,13.80
2022-12-29T16:32:04.109Z,13.80
2022-12-29T16:34:37.824Z,13.80
2022-12-29T16:37:25.792Z,13.80
2022-12-29T16:39:53.314Z,13.80
2022-12-29T16:42:47.120Z,13.90
2022-12-29T16:45:20.291Z,13.80
2022-12-29T16:48:05.800Z,13.80
2022-12-29T16:50:34.551Z,13.80
2022-12-29T16:53:03.632Z,13.80
2022-12-29T16:55:31.068Z,13.70
2022-12-29T16:57:59.691Z,13.80
2022-12-29T17:00:28.555Z,13.70
2022-12-29T17:02:58.394Z,13.60
2022-12-29T17:05:25.695Z,13.60
2022-12-29T17:07:53.933Z,13.40
2022-12-29T17:10:20.701Z,13.40
2022-12-29T17:12:49.534Z,13.40
2022-12-29T17:15:27.238Z,13.30
2022-12-29T17:17:57.229Z,13.20
2022-12-29T17:20:26.820Z,13.00
2022-12-29T17:22:54.323Z,13.10
2022-12-29T17:25:36.770Z,13.10
2022-12-29T17:28:07.195Z,13.10
2022-12-29T17:30:36.151Z,13.00
2022-12-29T17:33:10.161Z,13.00
2022-12-29T17:35:37.234Z,12.90
2022-12-29T17:38:13.565Z,13.00
2022-12-29T17:40:40.312Z,13.30
2022-12-29T17:43:13.676Z,12.90
2022-12-29T17:45:41.925Z,12.90
2022-12-29T17:48:16.874Z,12.90
2022-12-29T17:50:44.463Z,13.40
2022-12-29T17:53:17.428Z,12.90
2022-12-29T17:55:44.175Z,12.90
2022-12-29T17:58:29.068Z,12.90
2022-12-29T18:00:59.744Z,13.90
2022-12-29T18:03:35.255Z,13.10
2022-12-29T18:06:05.162Z,12.90
2022-12-29T18:08:32.776Z,12.90
2022-12-29T18:10:59.734Z,12.90
2022-12-29T18:13:40.432Z,12.80
2022-12-29T18:16:12.222Z,12.90
2022-12-29T18:18:39.012Z,12.80
2022-12-29T18:21:05.951Z,12.90
2022-12-29T18:23:36.606Z,12.90
2022-12-29T18:26:12.468Z,12.90
2022-12-29T18:28:39.189Z,12.80
2022-12-29T18:31:19.793Z,12.90
2022-12-29T18:33:47.747Z,12.80
2022-12-29T18:36:15.440Z,12.80
2022-12-29T18:38:42.482Z,13.10
2022-12-29T18:41:16.482Z,12.70
2022-12-29T18:43:43.836Z,12.70
2022-12-29T18:46:10.721Z,12.70
2022-12-29T18:48:38.028Z,13.60
2022-12-29T18:51:05.995Z,12.70
2022-12-29T18:53:33.000Z,12.70
2022-12-29T18:55:59.760Z,12.70
2022-12-29T18:58:32.214Z,12.70
2022-12-29T19:01:01.066Z,12.80
2022-12-29T19:03:27.974Z,12.70
2022-12-29T19:05:54.839Z,13.60
2022-12-29T19:08:21.662Z,12.70
2022-12-29T19:10:48.397Z,12.70
2022-12-29T19:13:18.004Z,12.70
2022-12-29T19:15:46.579Z,12.70
2022-12-29T19:21:06.329Z,12.80
2022-12-29T19:23:33.403Z,12.80
2022-12-29T19:26:00.120Z,12.80
2022-12-29T19:28:28.291Z,12.70
2022-12-29T19:30:59.713Z,12.70
2022-12-29T19:33:28.246Z,12.70
2022-12-29T19:36:02.811Z,12.60
2022-12-29T19:38:30.035Z,12.50
2022-12-29T19:40:57.141Z,12.50
2022-12-29T19:43:23.860Z,12.40
2022-12-29T19:45:52.537Z,12.50
2022-12-29T19:48:20.875Z,12.40
2022-12-29T19:50:48.028Z,13.40
2022-12-29T19:53:15.955Z,12.30
2022-12-29T19:55:47.056Z,12.50
2022-12-29T19:58:14.540Z,12.40
2022-12-29T20:00:45.356Z,12.40
2022-12-29T20:03:12.242Z,12.40
2022-12-29T20:05:39.804Z,12.40
2022-12-29T20:08:06.792Z,12.40
2022-12-29T20:10:33.632Z,12.40
2022-12-29T20:13:04.513Z,12.40
2022-12-29T20:15:31.555Z,12.40
2022-12-29T20:18:14.961Z,12.40
2022-12-29T20:20:42.585Z,12.30
2022-12-29T20:23:09.407Z,12.30
2022-12-29T20:25:45.297Z,12.30
2022-12-29T20:28:13.166Z,12.30
2022-12-29T20:30:39.950Z,13.10
2022-12-29T20:33:08.782Z,12.20
2022-12-29T20:35:36.258Z,12.20
2022-12-29T20:38:03.408Z,12.20
2022-12-29T20:40:30.128Z,12.00
2022-12-29T20:42:56.835Z,12.00
2022-12-29T20:45:23.860Z,12.00
2022-12-29T20:47:50.631Z,12.00
2022-12-29T20:50:17.355Z,12.00
2022-12-29T20:52:44.158Z,12.00
2022-12-29T20:55:10.905Z,12.00
2022-12-29T20:57:57.532Z,11.90
2022-12-29T21:00:25.689Z,12.00
2022-12-29T21:02:53.183Z,13.20
2022-12-29T21:05:24.358Z,11.90
2022-12-29T21:07:52.401Z,12.00
2022-12-29T21:10:19.131Z,11.90
2022-12-29T21:12:45.976Z,11.90
2022-12-29T21:15:14.955Z,11.90
2022-12-29T21:17:43.306Z,12.00
2022-12-29T21:20:19.509Z,11.90
2022-12-29T21:22:47.719Z,11.90
2022-12-29T21:25:14.819Z,11.80
2022-12-29T21:27:44.413Z,11.80
2022-12-29T21:30:12.220Z,11.70
2022-12-29T21:32:39.452Z,11.70
2022-12-29T21:35:07.201Z,11.80
2022-12-29T21:37:34.573Z,11.70
2022-12-29T21:40:01.232Z,11.70
2022-12-29T21:42:27.974Z,11.60
2022-12-29T21:45:19.900Z,11.60
2022-12-29T21:48:06.080Z,11.50
2022-12-29T21:50:32.781Z,11.50
2022-12-29T21:52:59.582Z,11.60
2022-12-29T21:55:26.307Z,11.60
2022-12-29T21:58:11.626Z,11.50
2022-12-29T22:00:57.071Z,11.60
2022-12-29T22:03:42.371Z,11.50
2022-12-29T22:06:30.633Z,11.50
2022-12-29T22:09:16.012Z,11.40
2022-12-29T22:12:01.550Z,11.40
2022-12-29T22:14:28.233Z,11.30
2022-12-29T22:16:54.904Z,11.20
2022-12-29T22:19:21.623Z,11.20
2022-12-29T22:21:48.446Z,11.30
2022-12-29T22:24:15.155Z,11.10
2022-12-29T22:26:42.043Z,11.20
2022-12-29T22:29:08.706Z,11.10
2022-12-29T22:31:35.627Z,11.20
2022-12-29T22:34:04.192Z,11.20
2022-12-29T22:36:32.414Z,11.20
2022-12-29T22:38:59.348Z,11.20
2022-12-29T22:41:26.140Z,11.20
2022-12-29T22:43:52.898Z,11.20
2022-12-29T22:46:19.910Z,12.10
2022-12-29T22:48:46.932Z,11.10
2022-12-29T22:51:13.954Z,11.10
2022-12-29T22:53:41.278Z,11.10
2022-12-29T22:56:12.833Z,11.20
2022-12-29T22:58:43.992Z,11.20
2022-12-29T23:01:12.458Z,11.30
2022-12-29T23:03:39.883Z,11.30
2022-12-29T23:06:08.959Z,11.30
2022-12-29T23:08:38.235Z,11.20
2022-12-29T23:11:07.901Z,12.60
2022-12-29T23:13:35.378Z,11.20
2022-12-29T23:16:02.155Z,11.40
2022-12-29T23:18:29.332Z,11.50
2022-12-29T23:20:56.098Z,11.30
2022-12-29T23:23:48.507Z,11.20
2022-12-29T23:26:26.753Z,11.30
2022-12-29T23:28:59.715Z,11.30
2022-12-29T23:31:27.663Z,11.90
2022-12-29T23:33:55.561Z,11.30
2022-12-29T23:36:22.725Z,11.30
2022-12-29T23:38:49.603Z,11.30
2022-12-29T23:41:16.374Z,11.30
2022-12-29T23:43:43.336Z,11.30
2022-12-29T23:46:12.670Z,11.30
2022-12-29T23:48:39.677Z,11.30
2022-12-29T23:51:07.028Z,11.30
2022-12-29T23:53:35.278Z,11.30
2022-12-29T23:56:02.153Z,11.40
2022-12-29T23:58:33.811Z,11.40
